createdAt,value
2023-02-05T00:02:00.945Z,7
2023-02-05T00:04:03.978Z,7
2023-02-05T00:06:07.039Z,7
2023-02-05T00:08:10.148Z,7.1
2023-02-05T00:10:13.225Z,7
2023-02-05T00:12:19.512Z,7.1
2023-02-05T00:14:22.598Z,7
2023-02-05T00:16:25.750Z,7
2023-02-05T00:25:07.963Z,7
2023-02-05T00:27:11.089Z,7
2023-02-05T00:29:14.164Z,7
2023-02-05T00:31:17.489Z,7
2023-02-05T00:33:20.355Z,6.9
2023-02-05T00:35:23.391Z,7
2023-02-05T00:37:26.505Z,7
2023-02-05T00:39:32.769Z,6.9
2023-02-05T00:41:35.826Z,6.9
2023-02-05T00:43:38.947Z,6.9
2023-02-05T00:45:42.038Z,7.1
2023-02-05T00:49:48.189Z,6.9
2023-02-05T00:51:51.308Z,7.1
2023-02-05T00:53:57.565Z,7
2023-02-05T00:58:03.770Z,7
2023-02-05T01:00:06.859Z,6.9
2023-02-05T01:02:09.969Z,7
2023-02-05T01:04:13.028Z,7
2023-02-05T01:06:16.138Z,7.1
2023-02-05T01:10:25.522Z,7.1
2023-02-05T01:12:28.646Z,7.3
2023-02-05T01:13:31.797Z,7.2
2023-02-05T01:15:35.187Z,7.2
2023-02-05T01:17:37.987Z,7.3
2023-02-05T01:19:41.082Z,7.3
2023-02-05T01:21:47.382Z,7.4
2023-02-05T01:23:50.498Z,7.3
2023-02-05T01:25:53.678Z,7.3
2023-02-05T01:27:56.709Z,7.3
2023-02-05T01:29:59.774Z,7.3
2023-02-05T01:32:02.882Z,7.3
2023-02-05T01:34:05.976Z,7.3
2023-02-05T01:36:12.277Z,7.3
2023-02-05T01:38:15.362Z,7.2
2023-02-05T01:40:18.466Z,7.3
2023-02-05T01:42:21.590Z,7.3
2023-02-05T01:44:24.888Z,7.3
2023-02-05T01:46:27.790Z,7.3
2023-02-05T01:48:30.887Z,7.4
2023-02-05T01:50:37.179Z,7.3
2023-02-05T01:52:40.270Z,7.2
2023-02-05T01:54:43.364Z,7.2
2023-02-05T01:56:46.459Z,7.3
2023-02-05T01:58:49.593Z,7.3
2023-02-05T02:00:52.652Z,7.3
2023-02-05T02:02:55.754Z,7.3
2023-02-05T02:05:02.123Z,7.2
2023-02-05T02:07:05.140Z,7.3
2023-02-05T02:10:11.399Z,7.2
2023-02-05T02:12:14.510Z,7.3
2023-02-05T02:14:17.542Z,7.2
2023-02-05T02:16:20.874Z,7.3
2023-02-05T02:18:26.950Z,7.2
2023-02-05T02:24:36.244Z,7.4
2023-02-05T02:26:39.336Z,7.2
2023-02-05T02:30:45.609Z,7.3
2023-02-05T02:36:58.013Z,7.3
2023-02-05T02:51:22.891Z,7.3
2023-02-05T02:57:32.202Z,7.3
2023-02-05T02:59:35.294Z,7.3
2023-02-05T03:01:46.929Z,7.4
2023-02-05T03:03:44.777Z,7.5
2023-02-05T03:05:47.795Z,7.4
2023-02-05T03:06:50.948Z,7.4
2023-02-05T03:08:54.044Z,7.5
2023-02-05T03:10:57.153Z,7.5
2023-02-05T03:13:00.248Z,7.4
2023-02-05T03:15:06.582Z,7.5
2023-02-05T03:17:09.677Z,7.5
2023-02-05T03:19:13.303Z,7.3
2023-02-05T03:21:15.941Z,7.4
2023-02-05T03:23:18.950Z,7.4
2023-02-05T03:25:22.060Z,7.3
2023-02-05T03:27:25.135Z,7.4
2023-02-05T03:29:31.437Z,7.4
2023-02-05T03:31:34.596Z,7.4
2023-02-05T03:33:37.637Z,7.3
2023-02-05T03:35:40.749Z,7.4
2023-02-05T03:37:43.853Z,7.3
2023-02-05T03:39:46.935Z,7.3
2023-02-05T03:41:50.057Z,7.3
2023-02-05T03:43:56.390Z,7.3
2023-02-05T03:45:59.502Z,7.3
2023-02-05T03:48:02.547Z,7.3
2023-02-05T03:50:05.632Z,7.3
2023-02-05T03:52:08.717Z,7.4
2023-02-05T03:54:11.810Z,7.3
2023-02-05T03:56:14.859Z,7.3
2023-02-05T03:58:21.171Z,7.3
2023-02-05T04:00:24.286Z,7.2
2023-02-05T04:02:27.490Z,7.3
2023-02-05T04:06:54.632Z,7.4
2023-02-05T04:17:13.320Z,7.2
2023-02-05T04:19:16.442Z,7.2
2023-02-05T04:23:22.666Z,7.2
2023-02-05T04:27:32.058Z,7.2
2023-02-05T04:29:35.122Z,7.1
2023-02-05T04:31:38.337Z,7.2
2023-02-05T04:33:41.310Z,7.1
2023-02-05T04:35:44.427Z,7.1
2023-02-05T04:37:47.524Z,7.2
2023-02-05T04:39:53.827Z,7.2
2023-02-05T04:41:56.932Z,7.2
2023-02-05T04:44:00.058Z,7.2
2023-02-05T04:46:03.147Z,7.1
2023-02-05T04:48:06.228Z,7.1
2023-02-05T04:50:09.314Z,7
2023-02-05T04:52:12.377Z,7
2023-02-05T04:54:18.700Z,7.1
2023-02-05T04:56:21.780Z,7.1
2023-02-05T04:58:24.893Z,7
2023-02-05T04:59:28.001Z,7
2023-02-05T05:01:31.160Z,7.1
2023-02-05T05:07:43.592Z,7
2023-02-05T05:09:46.692Z,7.1
2023-02-05T05:13:52.847Z,7
2023-02-05T05:20:02.192Z,6.9
2023-02-05T05:22:08.409Z,6.9
2023-02-05T05:24:11.470Z,7
2023-02-05T05:26:14.588Z,7
2023-02-05T05:28:17.664Z,6.8
2023-02-05T05:30:20.747Z,6.8
2023-02-05T05:32:23.832Z,6.9
2023-02-05T05:34:26.880Z,6.8
2023-02-05T05:36:33.173Z,7
2023-02-05T05:38:36.266Z,6.9
2023-02-05T05:40:40.939Z,6.9
2023-02-05T05:42:43.997Z,6.9
2023-02-05T05:44:47.052Z,7
2023-02-05T05:48:53.316Z,7
2023-02-05T05:53:02.612Z,7
2023-02-05T05:55:05.705Z,7
2023-02-05T05:56:08.824Z,7
2023-02-05T05:58:11.926Z,7
2023-02-05T06:00:14.994Z,6.9
2023-02-05T06:02:18.141Z,6.9
2023-02-05T06:04:24.371Z,7
2023-02-05T06:06:27.433Z,6.9
2023-02-05T06:08:30.497Z,6.8
2023-02-05T06:10:33.610Z,6.8
2023-02-05T06:12:36.662Z,6.7
2023-02-05T06:14:39.764Z,6.6
2023-02-05T06:16:42.820Z,6.5
2023-02-05T06:24:58.352Z,6.1
2023-02-05T06:27:01.440Z,5.9
2023-02-05T06:29:04.493Z,6.1
2023-02-05T06:31:07.721Z,6
2023-02-05T06:33:13.869Z,5.9
2023-02-05T06:37:20.064Z,6
2023-02-05T06:39:25.123Z,6
2023-02-05T06:41:26.212Z,5.9
2023-02-05T06:43:29.307Z,6.1
2023-02-05T06:45:32.831Z,6
2023-02-05T06:47:38.694Z,6
2023-02-05T06:49:41.767Z,6
2023-02-05T06:51:44.838Z,6
2023-02-05T06:52:48.016Z,6
2023-02-05T06:54:51.070Z,6
2023-02-05T06:56:54.132Z,5.9
2023-02-05T06:58:57.227Z,6
2023-02-05T07:01:03.485Z,5.8
2023-02-05T07:03:06.573Z,5.8
2023-02-05T07:05:09.661Z,5.8
2023-02-05T07:09:15.800Z,5.8
2023-02-05T07:13:21.982Z,6
2023-02-05T07:15:28.242Z,6
2023-02-05T07:17:31.355Z,6.1
2023-02-05T07:19:34.405Z,6.1
2023-02-05T07:21:37.483Z,6
2023-02-05T07:25:43.599Z,6.1
2023-02-05T07:29:52.930Z,6.1
2023-02-05T07:31:56.049Z,6.1
2023-02-05T07:33:59.055Z,6
2023-02-05T07:36:02.147Z,6.2
2023-02-05T07:38:05.321Z,6.1
2023-02-05T07:40:08.270Z,6.1
2023-02-05T07:42:11.367Z,6.2
2023-02-05T07:48:23.770Z,6.1
2023-02-05T07:50:53.620Z,6.2
2023-02-05T07:52:56.652Z,6.2
2023-02-05T07:54:59.738Z,6.1
2023-02-05T07:57:06.960Z,5.9
2023-02-05T07:59:09.115Z,6
2023-02-05T08:01:12.275Z,6
2023-02-05T08:03:15.231Z,6
2023-02-05T08:05:18.309Z,6
2023-02-05T08:07:21.383Z,5.9
2023-02-05T08:09:24.440Z,6
2023-02-05T08:11:32.507Z,6
2023-02-05T08:13:33.804Z,6.1
2023-02-05T08:15:36.840Z,6
2023-02-05T08:17:39.946Z,6.1
2023-02-05T08:19:43.011Z,6
2023-02-05T08:21:46.072Z,6
2023-02-05T08:25:55.445Z,5.9
2023-02-05T08:30:01.583Z,6
2023-02-05T08:32:04.577Z,6
2023-02-05T08:34:07.681Z,6.1
2023-02-05T08:38:13.766Z,6.2
2023-02-05T08:40:20.101Z,6.3
2023-02-05T08:42:23.150Z,6.2
2023-02-05T08:44:26.347Z,6.5
2023-02-05T08:49:37.432Z,6.4
2023-02-05T08:51:38.559Z,6.5
2023-02-05T08:53:44.840Z,6.7
2023-02-05T08:55:47.913Z,6.7
2023-02-05T08:57:50.980Z,6.6
2023-02-05T08:59:54.066Z,6.7
2023-02-05T09:01:57.140Z,6.6
2023-02-05T09:04:00.269Z,6.7
2023-02-05T09:06:03.289Z,6.8
2023-02-05T09:08:09.558Z,6.8
2023-02-05T09:10:12.655Z,6.8
2023-02-05T09:12:15.711Z,6.9
2023-02-05T09:18:24.927Z,7.3
2023-02-05T09:22:34.245Z,7.3
2023-02-05T09:24:37.340Z,7.2
2023-02-05T09:28:43.494Z,7
2023-02-05T09:30:46.845Z,6.9
2023-02-05T09:36:58.986Z,7
2023-02-05T09:39:14.141Z,7.1
2023-02-05T09:41:05.205Z,7.1
2023-02-05T09:42:08.277Z,7.1
2023-02-05T09:44:11.368Z,7
2023-02-05T09:46:14.538Z,7.1
2023-02-05T09:48:17.522Z,7.2
2023-02-05T09:50:23.860Z,7.4
2023-02-05T09:52:26.900Z,7.3
2023-02-05T09:56:34.873Z,7.5
2023-02-05T09:58:36.121Z,7.5
2023-02-05T10:08:54.763Z,8
2023-02-05T10:10:57.835Z,8
2023-02-05T10:13:00.937Z,8.1
2023-02-05T10:15:04.016Z,8.2
2023-02-05T10:19:13.442Z,8.1
2023-02-05T10:21:16.518Z,8.2
2023-02-05T10:23:19.641Z,8.2
2023-02-05T10:25:22.734Z,8.1
2023-02-05T10:27:25.851Z,7.9
2023-02-05T10:29:28.933Z,8
2023-02-05T10:33:38.366Z,7.9
2023-02-05T10:35:41.485Z,7.8
2023-02-05T10:37:44.566Z,7.7
2023-02-05T10:38:47.726Z,7.7
2023-02-05T10:40:50.847Z,7.7
2023-02-05T10:42:53.940Z,7.7
2023-02-05T10:44:57.017Z,7.9
2023-02-05T10:47:03.312Z,8
2023-02-05T10:49:06.408Z,8.1
2023-02-05T10:51:09.540Z,8.1
2023-02-05T10:55:15.737Z,8.2
2023-02-05T10:57:18.850Z,8.1
2023-02-05T11:01:28.263Z,8.1
2023-02-05T11:15:53.299Z,8
2023-02-05T11:17:56.308Z,8
2023-02-05T11:19:59.456Z,8
2023-02-05T11:24:05.646Z,8.1
2023-02-05T11:34:24.397Z,8.4
2023-02-05T11:36:55.701Z,8.3
2023-02-05T11:38:58.918Z,8.3
2023-02-05T11:43:08.242Z,8.1
2023-02-05T11:45:11.342Z,8.1
2023-02-05T11:47:14.480Z,8.1
2023-02-05T11:49:17.573Z,8
2023-02-05T11:51:20.715Z,8
2023-02-05T11:53:23.805Z,8.1
2023-02-05T11:55:26.919Z,8.1
2023-02-05T11:57:33.242Z,8.3
2023-02-05T11:59:36.369Z,8.3
2023-02-05T12:01:39.517Z,8.4
2023-02-05T12:03:42.554Z,8.7
2023-02-05T12:05:45.651Z,9.3
2023-02-05T12:07:48.786Z,10
2023-02-05T12:09:51.861Z,9.8
2023-02-05T12:11:58.171Z,10.8
2023-02-05T12:14:01.311Z,11.5
2023-02-05T12:16:04.462Z,12.4
2023-02-05T12:22:13.781Z,10.6
2023-02-05T12:24:16.913Z,10.5
2023-02-05T12:26:23.250Z,9.7
2023-02-05T12:28:26.386Z,9.6
2023-02-05T12:31:32.714Z,9.3
2023-02-05T12:33:35.820Z,9.4
2023-02-05T12:35:38.954Z,8.9
2023-02-05T12:37:42.091Z,8.7
2023-02-05T12:39:48.430Z,8.7
2023-02-05T12:43:54.707Z,8.7
2023-02-05T12:45:57.919Z,8.7
2023-02-05T12:50:04.066Z,9.5
2023-02-05T12:52:07.190Z,9.4
2023-02-05T12:54:13.527Z,9.4
2023-02-05T12:56:16.703Z,9.3
2023-02-05T13:00:23.032Z,10.3
2023-02-05T13:02:26.030Z,10
2023-02-05T13:04:29.167Z,9.9
2023-02-05T13:06:32.279Z,10.4
2023-02-05T13:08:38.619Z,10.4
2023-02-05T13:10:41.760Z,10.2
2023-02-05T13:12:44.898Z,9.6
2023-02-05T13:18:54.312Z,9.3
2023-02-05T13:23:03.775Z,9.8
2023-02-05T13:25:06.974Z,9.9
2023-02-05T13:28:13.322Z,10
2023-02-05T13:30:16.426Z,9.8
2023-02-05T13:32:19.464Z,9.6
2023-02-05T13:40:35.464Z,9.7
2023-02-05T13:42:38.321Z,9.6
2023-02-05T13:44:41.471Z,9.6
2023-02-05T13:46:44.590Z,9.4
2023-02-05T13:48:47.728Z,9.3
2023-02-05T13:50:54.041Z,9.4
2023-02-05T13:52:57.195Z,9.4
2023-02-05T13:55:00.332Z,9.3
2023-02-05T13:57:03.455Z,9.2
2023-02-05T13:59:06.560Z,9.5
2023-02-05T14:03:12.857Z,9.6
2023-02-05T14:05:19.157Z,9.4
2023-02-05T14:07:22.282Z,9.4
2023-02-05T14:09:25.394Z,9.1
2023-02-05T14:11:28.536Z,9
2023-02-05T14:15:35.080Z,9.2
2023-02-05T14:17:37.905Z,9.3
2023-02-05T14:19:44.214Z,9.6
2023-02-05T14:21:47.361Z,9.7
2023-02-05T14:24:53.674Z,9.6
2023-02-05T14:31:03.177Z,9.1
2023-02-05T14:35:12.484Z,9
2023-02-05T14:37:15.629Z,8.9
2023-02-05T14:43:24.993Z,8.9
2023-02-05T14:45:28.133Z,9
2023-02-05T14:47:34.409Z,9
2023-02-05T14:49:37.543Z,9.1
2023-02-05T14:51:40.692Z,9
2023-02-05T14:53:43.794Z,8.9
2023-02-05T14:55:46.894Z,8.9
2023-02-05T14:57:50.010Z,9
2023-02-05T14:59:53.140Z,9.1
2023-02-05T15:01:59.468Z,9.1
2023-02-05T15:04:02.551Z,8.8
2023-02-05T15:06:05.680Z,8.8
2023-02-05T15:10:11.922Z,8.8
2023-02-05T15:12:15.036Z,8.8
2023-02-05T15:14:18.161Z,8.8
2023-02-05T15:16:24.462Z,8.9
2023-02-05T15:18:27.572Z,8.8
2023-02-05T15:22:54.688Z,8.5
2023-02-05T15:24:57.787Z,8.5
2023-02-05T15:27:00.908Z,8.6
2023-02-05T15:29:07.224Z,8.5
2023-02-05T15:31:10.413Z,8.5
2023-02-05T15:35:16.613Z,8.5
2023-02-05T15:39:22.807Z,8.7
2023-02-05T15:45:35.641Z,8.3
2023-02-05T15:47:38.460Z,8.3
2023-02-05T15:49:41.595Z,8.2
2023-02-05T15:51:44.689Z,8.1
2023-02-05T15:53:49.359Z,8
2023-02-05T15:55:50.936Z,7.9
2023-02-05T15:57:57.265Z,7.9
2023-02-05T16:00:00.427Z,8
2023-02-05T16:02:03.467Z,7.9
2023-02-05T16:04:06.570Z,8
2023-02-05T16:06:09.687Z,7.8
2023-02-05T16:08:12.765Z,7.8
2023-02-05T16:10:15.886Z,7.8
2023-02-05T16:12:22.241Z,7.8
2023-02-05T16:14:25.300Z,7.8
2023-02-05T16:16:28.411Z,7.8
2023-02-05T16:19:34.656Z,7.7
2023-02-05T16:21:37.750Z,7.7
2023-02-05T16:23:40.844Z,7.6
2023-02-05T16:25:47.141Z,7.6
2023-02-05T16:27:50.318Z,7.5
2023-02-05T16:29:53.358Z,7.5
2023-02-05T16:31:56.928Z,7.4
2023-02-05T16:33:59.543Z,7.3
2023-02-05T16:38:05.734Z,7.3
2023-02-05T16:48:24.366Z,7.2
2023-02-05T16:52:30.536Z,7.2
2023-02-05T16:54:36.811Z,7.2
2023-02-05T16:56:39.901Z,7.2
2023-02-05T16:58:43.008Z,7.3
2023-02-05T17:00:46.120Z,7.2
2023-02-05T17:02:49.183Z,7.3
2023-02-05T17:04:52.253Z,7.2
2023-02-05T17:06:55.311Z,7.2
2023-02-05T17:09:01.635Z,7.1
2023-02-05T17:11:04.701Z,7.2
2023-02-05T17:13:07.807Z,7.1
2023-02-05T17:14:10.964Z,7
2023-02-05T17:16:14.043Z,7
2023-02-05T17:20:20.251Z,7
2023-02-05T17:22:26.533Z,7
2023-02-05T17:32:43.603Z,6.7
2023-02-05T17:34:46.648Z,6.6
2023-02-05T17:36:52.904Z,6.6
2023-02-05T17:38:56.046Z,6.7
2023-02-05T17:40:59.123Z,6.6
2023-02-05T17:43:02.213Z,6.7
2023-02-05T17:45:05.297Z,6.6
2023-02-05T17:49:11.437Z,6.5
2023-02-05T17:55:23.885Z,6.6
2023-02-05T17:57:26.981Z,6.6
2023-02-05T17:59:30.100Z,6.5
2023-02-05T18:01:33.168Z,6.6
2023-02-05T18:07:45.580Z,6.6
2023-02-05T18:09:48.705Z,6.7
2023-02-05T18:12:54.924Z,6.6
2023-02-05T18:14:57.994Z,6.6
2023-02-05T18:17:01.101Z,6.5
2023-02-05T18:19:07.375Z,6.6
2023-02-05T18:21:10.446Z,6.7
2023-02-05T18:23:18.670Z,6.6
2023-02-05T18:25:16.600Z,6.5
2023-02-05T18:27:19.686Z,6.4
2023-02-05T18:29:22.744Z,6.4
2023-02-05T18:31:25.971Z,6.4
2023-02-05T18:33:32.147Z,6.3
2023-02-05T18:35:35.359Z,6.3
2023-02-05T18:37:38.485Z,6.3
2023-02-05T18:39:41.351Z,6.2
2023-02-05T18:41:44.443Z,6.2
2023-02-05T18:43:47.639Z,6.2
2023-02-05T18:47:56.902Z,6
2023-02-05T18:49:59.997Z,6.1
2023-02-05T18:52:03.063Z,6
2023-02-05T18:54:06.139Z,6.1
2023-02-05T18:56:09.233Z,5.9
2023-02-05T19:00:15.353Z,5.9
2023-02-05T19:02:21.658Z,5.8
2023-02-05T19:04:24.709Z,5.9
2023-02-05T19:06:27.804Z,5.8
2023-02-05T19:08:51.490Z,5.7
2023-02-05T19:10:54.552Z,5.7
2023-02-05T19:12:57.605Z,5.7
2023-02-05T19:17:06.955Z,5.6
2023-02-05T19:19:10.049Z,5.6
2023-02-05T19:23:16.155Z,5.6
2023-02-05T19:25:19.222Z,5.4
2023-02-05T19:27:22.263Z,5.4
2023-02-05T19:29:28.516Z,5.4
2023-02-05T19:31:31.661Z,5.4
2023-02-05T19:33:34.623Z,5.3
2023-02-05T19:35:37.680Z,5.3
2023-02-05T19:37:40.772Z,5.2
2023-02-05T19:39:43.820Z,5.3
2023-02-05T19:41:46.865Z,5.3
2023-02-05T19:43:53.221Z,5.2
2023-02-05T19:45:56.256Z,5.2
2023-02-05T19:47:59.248Z,5.1
2023-02-05T19:50:02.287Z,5.1
2023-02-05T19:52:05.339Z,5.1
2023-02-05T19:54:08.421Z,5
2023-02-05T19:58:17.708Z,5
2023-02-05T20:00:20.845Z,4.9
2023-02-05T20:02:23.819Z,5
2023-02-05T20:03:26.980Z,4.9
2023-02-05T20:09:36.059Z,5
2023-02-05T20:13:45.395Z,4.8
2023-02-05T20:15:48.464Z,4.8
2023-02-05T20:20:02.587Z,4.8
2023-02-05T20:21:57.567Z,4.8
2023-02-05T20:24:00.615Z,4.7
2023-02-05T20:26:06.879Z,4.7
2023-02-05T20:30:12.966Z,4.7
2023-02-05T20:32:15.991Z,4.6
2023-02-05T20:34:19.071Z,4.5
2023-02-05T20:36:22.115Z,4.6
2023-02-05T20:38:25.111Z,4.6
2023-02-05T20:40:31.379Z,4.6
2023-02-05T20:42:34.422Z,4.6
2023-02-05T20:44:37.462Z,4.6
2023-02-05T20:46:40.521Z,4.5
2023-02-05T20:48:43.594Z,4.5
2023-02-05T20:50:46.588Z,4.4
2023-02-05T20:52:49.657Z,4.5
2023-02-05T21:00:05.124Z,4.5
2023-02-05T21:02:08.165Z,4.5
2023-02-05T21:04:11.167Z,4.4
2023-02-05T21:06:14.390Z,4.4
2023-02-05T21:08:20.404Z,4.4
2023-02-05T21:10:23.463Z,4.3
2023-02-05T21:12:26.489Z,4.4
2023-02-05T21:14:29.507Z,4.4
2023-02-05T21:18:35.571Z,4.3
2023-02-05T21:24:47.865Z,4.3
2023-02-05T21:26:50.920Z,4.4
2023-02-05T21:30:56.949Z,4.2
2023-02-05T21:37:09.195Z,4.2
2023-02-05T21:39:12.293Z,4.1
2023-02-05T21:41:15.258Z,4.2
2023-02-05T21:43:18.282Z,4.1
2023-02-05T21:45:21.368Z,4.1
2023-02-05T21:47:24.350Z,4.1
2023-02-05T21:49:27.374Z,4
2023-02-05T21:51:33.594Z,4
2023-02-05T21:53:36.635Z,4.1
2023-02-05T21:55:39.647Z,3.9
2023-02-05T21:58:45.774Z,3.9
2023-02-05T22:04:58.061Z,3.9
2023-02-05T22:17:16.185Z,3.8
2023-02-05T22:19:22.423Z,3.9
2023-02-05T22:21:25.440Z,3.8
2023-02-05T22:23:28.479Z,3.8
2023-02-05T22:25:31.472Z,3.9
2023-02-05T22:27:34.486Z,3.8
2023-02-05T22:29:37.503Z,3.8
2023-02-05T22:31:40.611Z,3.8
2023-02-05T22:33:46.763Z,3.7
2023-02-05T22:37:52.777Z,3.7
2023-02-05T22:39:55.788Z,3.7
2023-02-05T22:41:58.797Z,3.6
2023-02-05T22:44:01.805Z,3.6
2023-02-05T22:46:04.890Z,3.7
2023-02-05T22:48:11.032Z,3.6
2023-02-05T22:50:14.045Z,3.6
2023-02-05T22:52:17.048Z,3.5
2023-02-05T22:54:46.928Z,3.5
2023-02-05T22:56:49.951Z,3.5
2023-02-05T23:05:05.175Z,3.5
2023-02-05T23:09:11.181Z,3.6
2023-02-05T23:13:17.186Z,3.6
2023-02-05T23:15:23.374Z,3.6
2023-02-05T23:17:26.365Z,3.5
2023-02-05T23:19:29.362Z,3.6
2023-02-05T23:21:32.378Z,3.7
2023-02-05T23:23:35.388Z,3.6
2023-02-05T23:25:39.971Z,3.6
2023-02-05T23:27:42.931Z,3.6
2023-02-05T23:29:49.164Z,3.7
2023-02-05T23:33:55.141Z,3.6
2023-02-05T23:42:07.167Z,3.5
2023-02-05T23:48:19.411Z,3.5
2023-02-05T23:49:22.521Z,3.7
2023-02-05T23:51:25.524Z,3.6
2023-02-05T23:53:28.547Z,3.6
2023-02-05T23:57:37.768Z,3.6
